createdAt,value
2019-05-28T00:02:01.485Z,21.08
2019-05-28T00:05:07.579Z,21.31
2019-05-28T00:08:13.221Z,21.43
2019-05-28T00:11:18.918Z,21.16
2019-05-28T00:14:24.606Z,21.26
2019-05-28T00:17:30.326Z,21.50
2019-05-28T00:20:36.039Z,20.50
2019-05-28T00:23:41.793Z,20.80
2019-05-28T00:26:47.545Z,21.00
2019-05-28T00:29:53.288Z,20.80
2019-05-28T00:32:58.961Z,20.75
2019-05-28T00:36:05.212Z,20.74
2019-05-28T00:39:10.860Z,20.88
2019-05-28T00:42:16.598Z,20.93
2019-05-28T00:45:25.119Z,20.77
2019-05-28T00:48:30.779Z,20.31
2019-05-28T00:51:37.245Z,20.37
2019-05-28T00:54:44.375Z,20.27
2019-05-28T00:57:52.016Z,20.40
2019-05-28T01:00:58.074Z,20.44
2019-05-28T01:04:03.885Z,20.48
2019-05-28T01:07:09.548Z,20.19
2019-05-28T01:10:15.732Z,20.51
2019-05-28T01:13:21.540Z,20.55
2019-05-28T01:16:28.099Z,20.26
2019-05-28T01:19:34.226Z,20.42
2019-05-28T01:22:39.899Z,20.33
2019-05-28T01:25:45.572Z,20.28
2019-05-28T01:28:51.216Z,20.02
2019-05-28T01:31:56.899Z,19.83
2019-05-28T01:35:02.569Z,20.03
2019-05-28T01:38:08.718Z,20.03
2019-05-28T01:41:14.686Z,19.83
2019-05-28T01:44:20.328Z,19.86
2019-05-28T01:47:26.046Z,19.74
2019-05-28T01:50:31.656Z,19.41
2019-05-28T01:53:37.415Z,19.29
2019-05-28T01:56:43.113Z,19.00
2019-05-28T01:59:48.795Z,18.83
2019-05-28T02:02:54.553Z,18.95
2019-05-28T02:06:00.206Z,18.83
2019-05-28T02:09:07.739Z,18.87
2019-05-28T02:12:13.391Z,18.58
2019-05-28T02:15:22.071Z,18.86
2019-05-28T02:18:27.870Z,18.99
2019-05-28T02:21:34.844Z,18.51
2019-05-28T02:24:41.023Z,18.68
2019-05-28T02:27:46.854Z,19.00
2019-05-28T02:30:58.310Z,19.12
2019-05-28T02:34:04.101Z,19.28
2019-05-28T02:37:09.763Z,19.72
2019-05-28T02:40:17.046Z,19.34
2019-05-28T02:43:26.096Z,19.34
2019-05-28T02:46:32.303Z,19.71
2019-05-28T02:49:38.403Z,19.90
2019-05-28T02:52:45.845Z,20.14
2019-05-28T02:55:52.078Z,19.94
2019-05-28T02:59:00.426Z,19.60
2019-05-28T03:02:06.281Z,19.52
2019-05-28T03:05:33.405Z,19.53
2019-05-28T03:08:40.132Z,19.76
2019-05-28T03:11:46.023Z,19.48
2019-05-28T03:14:52.163Z,19.60
2019-05-28T03:17:58.192Z,19.62
2019-05-28T03:21:04.398Z,19.70
2019-05-28T03:24:12.931Z,19.62
2019-05-28T03:27:19.618Z,19.42
2019-05-28T03:30:25.369Z,19.36
2019-05-28T03:33:34.135Z,19.53
2019-05-28T03:36:41.294Z,19.78
2019-05-28T03:39:50.576Z,19.99
2019-05-28T03:42:56.298Z,19.87
2019-05-28T03:46:02.373Z,19.94
2019-05-28T03:49:08.072Z,19.84
2019-05-28T03:52:13.933Z,19.90
2019-05-28T03:55:19.648Z,19.55
2019-05-28T03:58:25.422Z,19.47
2019-05-28T04:01:31.119Z,18.79
2019-05-28T04:04:38.426Z,19.49
2019-05-28T04:07:44.164Z,19.36
2019-05-28T04:10:49.947Z,19.39
2019-05-28T04:13:55.700Z,19.76
2019-05-28T04:17:01.361Z,19.57
2019-05-28T04:20:07.197Z,19.40
2019-05-28T04:23:16.949Z,19.66
2019-05-28T04:26:22.899Z,19.73
2019-05-28T04:29:28.881Z,19.98
2019-05-28T04:32:40.723Z,19.94
2019-05-28T04:35:42.001Z,19.79
2019-05-28T04:38:48.691Z,19.98
2019-05-28T04:41:54.524Z,20.33
2019-05-28T04:45:00.274Z,20.51
2019-05-28T04:48:06.186Z,20.17
2019-05-28T04:51:11.883Z,20.74
2019-05-28T04:54:17.605Z,20.67
2019-05-28T04:57:23.279Z,21.21
2019-05-28T05:00:29.049Z,21.03
2019-05-28T05:03:34.794Z,21.44
2019-05-28T05:06:40.593Z,21.68
2019-05-28T05:09:46.245Z,21.29
2019-05-28T05:12:51.972Z,21.73
2019-05-28T05:15:57.973Z,21.72
2019-05-28T05:19:14.439Z,21.54
2019-05-28T05:22:27.658Z,21.57
2019-05-28T05:25:33.647Z,21.82
2019-05-28T05:28:40.335Z,22.31
2019-05-28T05:31:45.996Z,21.86
2019-05-28T05:34:51.740Z,22.44
2019-05-28T05:37:57.567Z,22.22
2019-05-28T05:41:03.284Z,22.73
2019-05-28T05:44:09.099Z,23.30
2019-05-28T05:47:14.974Z,23.65
2019-05-28T05:50:21.020Z,23.51
2019-05-28T05:53:29.023Z,23.43
2019-05-28T05:56:35.084Z,23.84
2019-05-28T05:59:40.845Z,23.73
2019-05-28T06:02:56.993Z,23.91
2019-05-28T06:06:02.699Z,24.09
2019-05-28T06:09:08.822Z,24.19
2019-05-28T06:12:14.590Z,24.58
2019-05-28T06:15:20.271Z,24.80
2019-05-28T06:18:26.040Z,24.06
2019-05-28T06:21:31.722Z,24.22
2019-05-28T06:24:38.548Z,24.48
2019-05-28T06:27:44.246Z,24.28
2019-05-28T06:30:50.056Z,24.49
2019-05-28T06:33:57.455Z,25.05
2019-05-28T06:37:03.270Z,25.34
2019-05-28T06:40:10.685Z,25.36
2019-05-28T06:43:16.522Z,25.12
2019-05-28T06:46:31.959Z,24.95
2019-05-28T06:49:41.760Z,25.17
2019-05-28T06:52:51.024Z,24.73
2019-05-28T06:55:56.729Z,25.13
2019-05-28T06:59:02.519Z,25.46
2019-05-28T07:02:08.196Z,25.13
2019-05-28T07:05:14.425Z,25.41
2019-05-28T07:08:20.103Z,25.82
2019-05-28T07:11:25.840Z,25.58
2019-05-28T07:14:31.501Z,24.91
2019-05-28T07:17:37.452Z,25.46
2019-05-28T07:20:43.212Z,24.71
2019-05-28T07:23:49.031Z,24.24
2019-05-28T07:26:54.830Z,24.44
2019-05-28T07:30:00.615Z,25.80
2019-05-28T07:33:06.395Z,26.08
2019-05-28T07:36:12.200Z,25.32
2019-05-28T07:39:20.617Z,25.65
2019-05-28T07:42:32.701Z,25.07
2019-05-28T07:45:33.666Z,25.75
2019-05-28T07:48:42.609Z,26.14
2019-05-28T07:51:49.074Z,26.76
2019-05-28T07:54:55.124Z,26.72
2019-05-28T07:58:01.051Z,27.56
2019-05-28T08:01:06.792Z,27.60
2019-05-28T08:04:12.661Z,26.45
2019-05-28T08:07:18.297Z,26.78
2019-05-28T08:10:24.137Z,27.24
2019-05-28T08:13:40.175Z,27.25
2019-05-28T08:16:51.895Z,27.42
2019-05-28T08:19:47.697Z,28.26
2019-05-28T08:22:53.443Z,28.34
2019-05-28T08:26:01.900Z,28.62
2019-05-28T08:29:07.985Z,28.03
2019-05-28T08:32:13.832Z,27.74
2019-05-28T08:35:19.552Z,27.93
2019-05-28T08:38:25.818Z,27.92
2019-05-28T08:41:31.729Z,27.97
2019-05-28T08:44:37.445Z,27.88
2019-05-28T08:47:43.202Z,27.43
2019-05-28T08:50:59.607Z,27.17
2019-05-28T08:54:05.761Z,27.04
2019-05-28T08:57:11.427Z,27.15
2019-05-28T09:00:35.718Z,27.17
2019-05-28T09:03:42.408Z,27.84
2019-05-28T09:06:50.059Z,28.33
2019-05-28T09:09:55.793Z,28.16
2019-05-28T09:13:01.441Z,28.48
2019-05-28T09:16:07.451Z,28.95
2019-05-28T09:19:13.325Z,28.50
2019-05-28T09:22:25.987Z,29.25
2019-05-28T09:25:26.871Z,29.33
2019-05-28T09:28:32.544Z,29.27
2019-05-28T09:31:38.422Z,28.99
2019-05-28T09:34:44.076Z,27.70
2019-05-28T09:37:51.477Z,28.09
2019-05-28T09:41:00.345Z,28.25
2019-05-28T09:44:06.422Z,28.89
2019-05-28T09:47:12.176Z,29.22
2019-05-28T09:50:29.814Z,29.14
2019-05-28T09:53:26.190Z,28.96
2019-05-28T09:56:32.890Z,28.17
2019-05-28T09:59:41.777Z,28.66
2019-05-28T10:02:47.159Z,29.12
2019-05-28T10:06:02.039Z,29.05
2019-05-28T10:09:00.246Z,29.06
2019-05-28T10:12:06.211Z,29.07
2019-05-28T10:15:12.424Z,28.16
2019-05-28T10:18:18.309Z,28.83
2019-05-28T10:21:24.079Z,28.76
2019-05-28T10:24:32.891Z,29.35
2019-05-28T10:27:38.713Z,29.57
2019-05-28T10:30:44.544Z,29.56
2019-05-28T10:33:50.349Z,29.19
2019-05-28T10:36:56.223Z,28.50
2019-05-28T10:40:02.087Z,29.56
2019-05-28T10:43:07.771Z,30.08
2019-05-28T10:46:15.465Z,29.47
2019-05-28T10:49:21.139Z,30.07
2019-05-28T10:52:26.995Z,30.19
2019-05-28T10:55:34.083Z,30.86
2019-05-28T10:58:39.812Z,30.72
2019-05-28T11:01:45.539Z,30.48
2019-05-28T11:04:51.368Z,30.84
2019-05-28T11:07:57.019Z,30.94
2019-05-28T11:11:02.856Z,31.03
2019-05-28T11:14:08.676Z,30.91
2019-05-28T11:17:14.449Z,31.23
2019-05-28T11:20:22.266Z,31.14
2019-05-28T11:23:28.068Z,31.55
2019-05-28T11:26:33.836Z,31.81
2019-05-28T11:29:39.638Z,32.22
2019-05-28T11:32:46.575Z,32.16
2019-05-28T11:35:52.522Z,31.88
2019-05-28T11:38:58.219Z,31.60
2019-05-28T11:42:03.992Z,31.56
2019-05-28T11:45:10.688Z,31.83
2019-05-28T11:48:16.704Z,31.96
2019-05-28T11:51:22.464Z,32.17
2019-05-28T11:54:28.585Z,32.08
2019-05-28T11:57:34.238Z,32.12
2019-05-28T12:00:40.167Z,31.94
2019-05-28T12:03:48.879Z,32.10
2019-05-28T12:06:55.651Z,32.29
2019-05-28T12:10:01.318Z,32.41
2019-05-28T12:13:10.929Z,32.78
2019-05-28T12:16:17.269Z,32.74
2019-05-28T12:19:24.333Z,33.15
2019-05-28T12:22:30.242Z,32.94
2019-05-28T12:25:36.185Z,32.39
2019-05-28T12:28:42.124Z,32.21
2019-05-28T12:31:50.666Z,32.59
2019-05-28T12:34:56.370Z,32.80
2019-05-28T12:38:02.294Z,33.20
2019-05-28T12:41:07.986Z,33.88
2019-05-28T12:44:16.833Z,33.84
2019-05-28T12:47:21.050Z,33.42
2019-05-28T12:50:27.059Z,33.21
2019-05-28T12:53:49.234Z,32.86
2019-05-28T12:56:40.532Z,32.72
2019-05-28T12:59:46.268Z,32.11
2019-05-28T13:02:51.995Z,32.06
2019-05-28T13:05:57.679Z,32.33
2019-05-28T13:09:03.917Z,32.44
2019-05-28T13:12:09.954Z,32.47
2019-05-28T13:15:16.299Z,32.38
2019-05-28T13:18:21.962Z,32.18
2019-05-28T13:21:27.730Z,31.77
2019-05-28T13:24:33.518Z,31.77
2019-05-28T13:27:39.305Z,31.66
2019-05-28T13:30:45.007Z,32.23
2019-05-28T13:33:50.681Z,32.72
2019-05-28T13:36:56.492Z,32.90
2019-05-28T13:40:02.281Z,33.23
2019-05-28T13:43:08.076Z,33.00
2019-05-28T13:46:13.796Z,33.72
2019-05-28T13:49:19.550Z,33.75
2019-05-28T13:52:25.210Z,34.00
2019-05-28T13:55:31.219Z,34.09
2019-05-28T13:58:37.096Z,33.92
2019-05-28T14:01:42.751Z,33.86
2019-05-28T14:04:48.486Z,34.32
2019-05-28T14:07:54.226Z,34.43
2019-05-28T14:11:00.148Z,34.71
2019-05-28T14:14:07.531Z,34.42
2019-05-28T14:17:14.261Z,34.06
2019-05-28T14:20:20.337Z,34.25
2019-05-28T14:23:26.102Z,34.13
2019-05-28T14:26:31.886Z,34.35
2019-05-28T14:29:37.551Z,34.46
2019-05-28T14:32:43.320Z,34.27
2019-05-28T14:35:49.105Z,34.36
2019-05-28T14:39:03.143Z,34.14
2019-05-28T14:42:02.277Z,34.22
2019-05-28T14:45:08.383Z,34.17
2019-05-28T14:48:14.176Z,34.32
2019-05-28T14:51:19.864Z,34.05
2019-05-28T14:54:28.118Z,34.12
2019-05-28T14:57:33.889Z,34.07
2019-05-28T15:00:42.012Z,34.31
2019-05-28T15:03:47.876Z,34.04
2019-05-28T15:06:57.095Z,34.13
2019-05-28T15:10:01.173Z,34.06
2019-05-28T15:13:08.114Z,34.10
2019-05-28T15:16:13.969Z,33.97
2019-05-28T15:19:19.684Z,33.90
2019-05-28T15:22:25.452Z,33.97
2019-05-28T15:25:31.137Z,33.80
2019-05-28T15:28:36.786Z,33.74
2019-05-28T15:31:42.552Z,33.60
2019-05-28T15:34:48.327Z,33.58
2019-05-28T15:37:54.137Z,33.53
2019-05-28T15:41:01.719Z,33.62
2019-05-28T15:44:07.442Z,33.64
2019-05-28T15:47:14.452Z,33.58
2019-05-28T15:50:21.098Z,33.49
2019-05-28T15:53:26.743Z,33.47
2019-05-28T15:56:32.415Z,33.54
2019-05-28T15:59:38.075Z,33.49
2019-05-28T16:02:43.822Z,33.30
2019-05-28T16:05:49.712Z,33.16
2019-05-28T16:08:55.367Z,33.06
2019-05-28T16:12:01.224Z,32.79
2019-05-28T16:15:07.509Z,32.70
2019-05-28T16:18:13.216Z,32.79
2019-05-28T16:21:20.035Z,32.79
2019-05-28T16:24:25.745Z,32.50
2019-05-28T16:27:31.470Z,32.56
2019-05-28T16:30:37.264Z,32.67
2019-05-28T16:33:42.942Z,32.59
2019-05-28T16:36:48.699Z,32.53
2019-05-28T16:39:54.415Z,32.49
2019-05-28T16:43:00.422Z,32.39
2019-05-28T16:46:06.320Z,32.34
2019-05-28T16:49:12.210Z,32.27
2019-05-28T16:52:17.975Z,32.11
2019-05-28T16:55:24.017Z,31.91
2019-05-28T16:58:29.691Z,31.68
2019-05-28T17:01:36.539Z,31.48
2019-05-28T17:04:42.272Z,31.37
2019-05-28T17:07:47.992Z,31.27
2019-05-28T17:10:53.688Z,31.06
2019-05-28T17:14:00.775Z,30.88
2019-05-28T17:17:06.801Z,30.81
2019-05-28T17:20:12.989Z,30.63
2019-05-28T17:23:19.097Z,30.32
2019-05-28T17:26:24.775Z,30.36
2019-05-28T17:29:30.462Z,30.32
2019-05-28T17:32:36.181Z,30.38
2019-05-28T17:35:41.858Z,30.14
2019-05-28T17:38:47.611Z,30.03
2019-05-28T17:41:53.330Z,29.99
2019-05-28T17:44:59.020Z,29.94
2019-05-28T17:48:04.893Z,29.82
2019-05-28T17:51:10.621Z,29.72
2019-05-28T17:54:16.402Z,29.48
2019-05-28T17:57:22.144Z,29.29
2019-05-28T18:00:27.803Z,29.14
2019-05-28T18:03:35.361Z,29.16
2019-05-28T18:06:41.445Z,28.84
2019-05-28T18:09:47.270Z,28.82
2019-05-28T18:12:54.163Z,28.68
2019-05-28T18:15:59.983Z,28.67
2019-05-28T18:19:05.835Z,28.57
2019-05-28T18:22:11.669Z,28.29
2019-05-28T18:25:20.735Z,28.26
2019-05-28T18:28:27.108Z,28.41
2019-05-28T18:31:35.624Z,28.40
2019-05-28T18:34:44.442Z,28.63
2019-05-28T18:37:50.101Z,28.59
2019-05-28T18:40:58.096Z,28.54
2019-05-28T18:44:05.158Z,28.21
2019-05-28T18:47:11.211Z,28.45
2019-05-28T18:50:17.344Z,28.33
2019-05-28T18:53:23.183Z,28.18
2019-05-28T18:56:28.959Z,28.45
2019-05-28T18:59:35.549Z,28.48
2019-05-28T19:02:41.413Z,28.49
2019-05-28T19:05:47.200Z,28.61
2019-05-28T19:08:56.733Z,28.59
2019-05-28T19:12:02.902Z,28.64
2019-05-28T19:15:11.479Z,28.62
2019-05-28T19:18:21.604Z,28.36
2019-05-28T19:21:29.686Z,28.44
2019-05-28T19:24:36.691Z,28.47
2019-05-28T19:27:53.372Z,28.01
2019-05-28T19:31:01.164Z,28.02
2019-05-28T19:34:08.908Z,28.13
2019-05-28T19:37:14.811Z,27.93
2019-05-28T19:40:31.201Z,27.38
2019-05-28T19:43:36.862Z,27.34
2019-05-28T19:46:44.218Z,27.29
2019-05-28T19:49:50.543Z,27.17
2019-05-28T19:53:02.217Z,26.67
2019-05-28T19:56:10.436Z,26.23
2019-05-28T19:59:16.249Z,26.02
2019-05-28T20:02:21.952Z,26.04
2019-05-28T20:05:27.914Z,25.99
2019-05-28T20:08:44.072Z,25.96
2019-05-28T20:11:49.760Z,25.73
2019-05-28T20:14:57.496Z,25.80
2019-05-28T20:18:03.285Z,25.95
2019-05-28T20:21:09.036Z,25.66
2019-05-28T20:24:14.821Z,25.37
2019-05-28T20:27:20.529Z,25.44
2019-05-28T20:30:26.312Z,25.39
2019-05-28T20:33:32.040Z,25.53
2019-05-28T20:36:39.274Z,25.48
2019-05-28T20:39:45.397Z,25.10
2019-05-28T20:42:51.227Z,24.97
2019-05-28T20:45:58.751Z,24.86
2019-05-28T20:49:08.872Z,25.03
2019-05-28T20:52:15.601Z,24.97
2019-05-28T20:55:22.821Z,24.89
2019-05-28T20:58:40.294Z,24.61
2019-05-28T21:01:39.426Z,24.41
2019-05-28T21:04:46.255Z,24.48
2019-05-28T21:07:53.171Z,24.50
2019-05-28T21:10:59.715Z,24.46
2019-05-28T21:14:05.466Z,24.49
2019-05-28T21:17:11.850Z,24.61
2019-05-28T21:20:18.552Z,24.61
2019-05-28T21:23:25.795Z,24.70
2019-05-28T21:26:31.588Z,24.74
2019-05-28T21:29:41.204Z,24.61
2019-05-28T21:32:50.710Z,24.47
2019-05-28T21:35:57.343Z,24.08
2019-05-28T21:39:03.839Z,23.89
2019-05-28T21:42:09.689Z,24.21
2019-05-28T21:45:16.654Z,24.32
2019-05-28T21:48:22.451Z,24.13
2019-05-28T21:51:28.421Z,23.96
2019-05-28T21:54:34.481Z,23.86
2019-05-28T21:57:40.338Z,23.79
2019-05-28T22:00:55.935Z,23.53
2019-05-28T22:04:01.890Z,23.51
2019-05-28T22:07:07.897Z,23.59
2019-05-28T22:10:14.583Z,23.63
2019-05-28T22:13:22.806Z,23.56
2019-05-28T22:16:29.699Z,23.43
2019-05-28T22:19:35.382Z,23.46
2019-05-28T22:22:42.057Z,22.89
2019-05-28T22:25:47.795Z,23.34
2019-05-28T22:28:53.487Z,23.58
2019-05-28T22:32:00.831Z,23.51
2019-05-28T22:35:06.881Z,23.50
2019-05-28T22:38:12.610Z,23.54
2019-05-28T22:41:18.407Z,23.24
2019-05-28T22:44:24.221Z,23.57
2019-05-28T22:47:30.053Z,23.50
2019-05-28T22:50:35.702Z,23.54
2019-05-28T22:53:41.383Z,23.60
2019-05-28T22:56:48.523Z,23.56
2019-05-28T22:59:54.236Z,23.75
2019-05-28T23:03:00.855Z,23.12
2019-05-28T23:06:07.927Z,23.54
2019-05-28T23:09:13.614Z,23.84
2019-05-28T23:12:19.260Z,23.91
2019-05-28T23:15:25.143Z,23.46
2019-05-28T23:18:30.813Z,23.30
2019-05-28T23:21:36.538Z,23.59
2019-05-28T23:24:42.267Z,23.49
2019-05-28T23:27:47.998Z,23.47
2019-05-28T23:30:53.841Z,23.55
2019-05-28T23:33:59.564Z,23.71
2019-05-28T23:37:06.345Z,23.73
2019-05-28T23:40:13.483Z,23.75
2019-05-28T23:43:19.212Z,23.77
2019-05-28T23:46:24.945Z,23.75
2019-05-28T23:49:30.735Z,23.74
2019-05-28T23:52:36.541Z,23.82
2019-05-28T23:55:43.005Z,23.71
2019-05-28T23:58:48.743Z,23.82
